Time;durP1;ratioP1;P1;durP2;ratioP2;P2;SDS_P1;SDS_P2;PMS_P1;PMS_P2;Temp;Humidity;BMP_temperature;BMP_pressure;BME280_temperature;BME280_humidity;BME280_pressure;Samples;Min_cycle;Max_cycle;Signal;HPM_P1;HPM_P2
2023/05/27 00:01:22;;;;;;;5.40;2.08;;;14.00;60.70;;;;;;4934084;29;20248;-77
2023/05/27 00:03:47;;;;;;;7.40;2.27;;;14.00;61.00;;;;;;4934605;29;20181;-76
2023/05/27 00:06:13;;;;;;;6.40;2.37;;;13.90;61.00;;;;;;4933001;29;20268;-77
2023/05/27 00:08:39;;;;;;;11.23;2.33;;;13.90;61.30;;;;;;4935989;29;20239;-76
2023/05/27 00:11:05;;;;;;;12.73;2.90;;;13.90;61.50;;;;;;4944135;29;20200;-77
2023/05/27 00:13:30;;;;;;;6.33;2.20;;;13.80;61.70;;;;;;4914955;29;20193;-77
2023/05/27 00:15:56;;;;;;;8.47;2.63;;;13.80;61.90;;;;;;4915530;29;20607;-76
2023/05/27 00:18:22;;;;;;;8.50;2.80;;;13.80;61.90;;;;;;4914766;29;20304;-76
2023/05/27 00:20:48;;;;;;;7.10;2.40;;;13.70;62.10;;;;;;4929742;29;20189;-76
2023/05/27 00:23:14;;;;;;;11.05;3.65;;;13.70;62.60;;;;;;4929274;29;20216;-76
2023/05/27 00:25:40;;;;;;;7.50;2.60;;;13.60;62.90;;;;;;4915179;29;20176;-77
2023/05/27 00:28:06;;;;;;;8.70;3.40;;;13.60;63.00;;;;;;4914177;29;20170;-76
2023/05/27 00:30:32;;;;;;;7.07;2.40;;;13.60;64.00;;;;;;4936884;29;21244;-76
2023/05/27 00:32:57;;;;;;;8.10;3.10;;;13.50;63.90;;;;;;4945352;29;20963;-76
2023/05/27 00:35:23;;;;;;;10.27;3.23;;;13.50;64.10;;;;;;4954644;28;20181;-76
2023/05/27 00:37:50;;;;;;;6.97;3.00;;;13.50;64.10;;;;;;4949733;28;20679;-76
2023/05/27 00:40:20;;;;;;;7.90;3.00;;;13.40;64.40;;;;;;4952050;28;20212;-76
2023/05/27 00:42:45;;;;;;;8.52;2.78;;;13.40;65.00;;;;;;4943845;29;20255;-76
2023/05/27 00:45:12;;;;;;;7.80;2.57;;;13.30;65.00;;;;;;4965201;28;20307;-75
2023/05/27 00:47:38;;;;;;;6.70;2.58;;;13.30;66.10;;;;;;4956432;28;20644;-76
2023/05/27 00:50:07;;;;;;;7.77;2.63;;;13.30;65.60;;;;;;4947603;28;20222;-76
2023/05/27 00:52:33;;;;;;;10.15;4.80;;;13.20;66.20;;;;;;4940958;28;20188;-76
2023/05/27 00:54:59;;;;;;;7.23;2.97;;;13.20;66.40;;;;;;4959812;28;20168;-76
2023/05/27 00:57:27;;;;;;;9.50;3.00;;;13.20;66.70;;;;;;4950069;29;20172;-76
2023/05/27 00:59:53;;;;;;;9.27;2.50;;;13.10;66.90;;;;;;4951120;28;20192;-76
2023/05/27 01:02:20;;;;;;;9.67;3.70;;;13.10;67.30;;;;;;4938582;29;20169;-77
2023/05/27 01:04:46;;;;;;;10.50;3.03;;;13.10;67.60;;;;;;4958266;28;20173;-76
2023/05/27 01:07:29;;;;;;;7.43;2.92;;;13.00;68.10;;;;;;4949298;28;20264;-77
2023/05/27 01:10:19;;;;;;;11.02;3.10;;;13.00;69.00;;;;;;4943539;28;20242;-77
2023/05/27 01:13:00;;;;;;;7.28;2.92;;;13.00;70.10;;;;;;4939212;29;20180;-78
2023/05/27 01:15:30;;;;;;;7.50;3.60;;;12.90;70.60;;;;;;4945544;29;20187;-77
2023/05/27 01:17:57;;;;;;;6.72;2.92;;;12.90;70.80;;;;;;4943579;29;20551;-77
2023/05/27 01:20:24;;;;;;;8.25;2.92;;;12.90;70.10;;;;;;4938302;29;20262;-77
2023/05/27 01:22:52;;;;;;;9.10;3.20;;;12.80;70.70;;;;;;4962833;28;20176;-78
2023/05/27 01:25:19;;;;;;;11.30;3.67;;;12.80;71.70;;;;;;4948582;28;20256;-77
2023/05/27 01:27:45;;;;;;;10.25;3.97;;;12.80;71.90;;;;;;4909520;29;20181;-78
2023/05/27 01:30:11;;;;;;;6.55;2.65;;;12.80;72.20;;;;;;4946436;28;20212;-77
2023/05/27 01:32:51;;;;;;;8.98;2.80;;;12.80;72.80;;;;;;4943855;29;20553;-80
2023/05/27 01:35:52;;;;;;;6.70;2.10;;;12.70;73.90;;;;;;4952217;28;20189;-78
2023/05/27 01:38:21;;;;;;;8.68;2.80;;;12.70;74.80;;;;;;4943517;29;20200;-78
2023/05/27 01:40:50;;;;;;;8.57;2.30;;;12.70;75.10;;;;;;4943922;28;20200;-78
2023/05/27 01:43:17;;;;;;;8.07;2.35;;;12.70;75.20;;;;;;4957250;28;20181;-78
2023/05/27 01:45:43;;;;;;;8.02;2.35;;;12.70;75.70;;;;;;4951394;29;20533;-78
2023/05/27 01:48:09;;;;;;;10.77;3.63;;;12.70;76.10;;;;;;4937002;29;20229;-79
2023/05/27 01:50:36;;;;;;;9.33;2.70;;;12.70;76.70;;;;;;4936741;29;20213;-79
2023/05/27 01:53:05;;;;;;;7.28;3.20;;;12.60;77.90;;;;;;4935612;29;20223;-78
2023/05/27 01:55:31;;;;;;;10.32;2.92;;;12.70;78.10;;;;;;4935305;29;20600;-78
2023/05/27 01:57:57;;;;;;;7.82;2.90;;;12.60;77.90;;;;;;4951396;29;20565;-78
2023/05/27 02:00:24;;;;;;;9.98;2.67;;;12.60;78.20;;;;;;4913286;29;20229;-78
2023/05/27 02:02:52;;;;;;;6.43;3.13;;;12.60;78.90;;;;;;4951501;29;20187;-78
2023/05/27 02:05:18;;;;;;;11.93;2.80;;;12.60;79.00;;;;;;4935649;29;20173;-78
2023/05/27 02:07:44;;;;;;;5.23;2.03;;;12.60;79.40;;;;;;4954190;29;20539;-78
2023/05/27 02:10:10;;;;;;;12.10;3.53;;;12.60;80.50;;;;;;4952707;28;20635;-78
2023/05/27 02:12:36;;;;;;;8.43;2.13;;;12.50;80.00;;;;;;4950813;29;20289;-78
2023/05/27 02:15:03;;;;;;;7.28;2.45;;;12.50;80.50;;;;;;4935267;29;20187;-78
2023/05/27 02:17:29;;;;;;;4.57;2.58;;;12.50;80.80;;;;;;4934714;29;20268;-78
2023/05/27 02:19:55;;;;;;;8.80;2.83;;;12.50;81.40;;;;;;4918654;29;20260;-77
2023/05/27 02:22:22;;;;;;;16.33;3.10;;;12.40;81.90;;;;;;4936350;29;20173;-78
2023/05/27 02:24:47;;;;;;;7.95;3.08;;;12.40;82.10;;;;;;4950784;29;20212;-78
2023/05/27 02:27:14;;;;;;;8.00;3.13;;;12.40;82.60;;;;;;4919050;29;20177;-78
2023/05/27 02:29:46;;;;;;;5.93;2.78;;;12.40;83.00;;;;;;4950391;29;20261;-78
2023/05/27 02:32:12;;;;;;;7.72;3.83;;;12.30;84.10;;;;;;4935070;29;20188;-79
2023/05/27 02:34:41;;;;;;;10.80;2.80;;;12.30;83.80;;;;;;4952302;28;20183;-78
2023/05/27 02:37:07;;;;;;;7.13;3.10;;;12.30;84.30;;;;;;4944059;29;20173;-77
2023/05/27 02:39:32;;;;;;;8.80;3.43;;;12.20;84.70;;;;;;4950119;29;20549;-78
2023/05/27 02:41:58;;;;;;;8.93;2.63;;;12.20;85.00;;;;;;4950849;29;20209;-77
2023/05/27 02:44:24;;;;;;;7.33;3.33;;;12.20;85.60;;;;;;4919429;29;20201;-76
2023/05/27 02:46:51;;;;;;;9.45;3.30;;;12.10;86.00;;;;;;4937373;29;20177;-77
2023/05/27 02:49:18;;;;;;;6.17;2.23;;;12.10;86.50;;;;;;4950687;29;20180;-78
2023/05/27 02:51:43;;;;;;;5.72;2.50;;;12.10;87.30;;;;;;4934120;29;20197;-77
2023/05/27 02:54:09;;;;;;;9.77;2.70;;;12.10;87.50;;;;;;4946923;29;20299;-78
2023/05/27 02:56:35;;;;;;;6.27;2.80;;;12.10;88.00;;;;;;4939625;29;20560;-78
2023/05/27 02:59:01;;;;;;;9.77;2.83;;;12.10;88.20;;;;;;4925834;29;20201;-77
2023/05/27 03:01:27;;;;;;;8.23;2.38;;;12.00;88.50;;;;;;4967194;28;20619;-78
2023/05/27 03:03:52;;;;;;;6.47;2.43;;;12.00;89.30;;;;;;4955239;28;20169;-78
2023/05/27 03:06:18;;;;;;;7.70;2.33;;;12.00;89.70;;;;;;4954411;28;20741;-77
2023/05/27 03:08:45;;;;;;;9.77;3.90;;;12.00;90.10;;;;;;4969141;28;20181;-78
2023/05/27 03:11:10;;;;;;;8.43;2.78;;;12.00;90.30;;;;;;4969600;28;20204;-78
2023/05/27 03:13:36;;;;;;;6.63;2.40;;;11.90;90.50;;;;;;4953077;29;20184;-77
2023/05/27 03:16:03;;;;;;;6.53;2.33;;;11.90;90.70;;;;;;4953423;29;20193;-78
2023/05/27 03:18:29;;;;;;;5.53;2.60;;;11.90;90.80;;;;;;4921136;29;20208;-78
2023/05/27 03:20:55;;;;;;;8.00;2.90;;;11.90;91.10;;;;;;4954891;28;20211;-78
2023/05/27 03:23:21;;;;;;;9.68;2.70;;;11.80;91.20;;;;;;4958246;28;20176;-77
2023/05/27 03:25:48;;;;;;;6.43;2.90;;;11.90;91.50;;;;;;4953460;29;20251;-78
2023/05/27 03:28:15;;;;;;;8.10;3.33;;;11.80;91.70;;;;;;4952349;29;20271;-77
2023/05/27 03:30:44;;;;;;;7.70;2.80;;;11.80;91.90;;;;;;4949630;28;20560;-78
2023/05/27 03:33:18;;;;;;;9.75;2.92;;;11.80;92.20;;;;;;4944924;29;20234;-77
2023/05/27 03:36:29;;;;;;;13.03;2.97;;;11.80;92.30;;;;;;4943864;28;20288;-77
2023/05/27 03:38:56;;;;;;;10.45;3.50;;;11.70;93.50;;;;;;4932965;29;20552;-77
2023/05/27 03:41:22;;;;;;;6.47;1.98;;;11.70;92.70;;;;;;4917633;29;20224;-77
2023/05/27 03:43:48;;;;;;;8.32;2.60;;;11.70;92.90;;;;;;4933705;29;20181;-77
2023/05/27 03:46:16;;;;;;;8.88;2.90;;;11.70;93.20;;;;;;4933277;29;20638;-78
2023/05/27 03:48:42;;;;;;;7.20;2.70;;;11.70;93.40;;;;;;4933406;29;20264;-77
2023/05/27 03:51:08;;;;;;;6.30;2.63;;;11.70;93.60;;;;;;4932936;29;20197;-78
2023/05/27 03:53:35;;;;;;;12.37;2.90;;;11.70;93.70;;;;;;4949770;29;20183;-77
2023/05/27 03:56:01;;;;;;;8.00;2.05;;;11.70;94.00;;;;;;4934232;29;20600;-77
2023/05/27 03:58:27;;;;;;;10.07;2.93;;;11.70;94.10;;;;;;4952265;29;20208;-77
2023/05/27 04:00:55;;;;;;;7.72;2.50;;;11.70;94.30;;;;;;4933906;29;20613;-78
2023/05/27 04:03:21;;;;;;;10.95;2.35;;;11.80;94.60;;;;;;4933391;29;20236;-78
2023/05/27 04:05:48;;;;;;;8.95;3.47;;;11.80;94.90;;;;;;4934579;29;20176;-78
2023/05/27 04:08:14;;;;;;;7.47;2.80;;;11.80;95.00;;;;;;4948799;29;20176;-78
2023/05/27 04:10:40;;;;;;;11.18;3.20;;;11.80;95.20;;;;;;4933215;29;20296;-78
2023/05/27 04:13:06;;;;;;;6.83;1.93;;;11.80;95.50;;;;;;4932870;29;20264;-78
2023/05/27 04:15:33;;;;;;;6.63;2.15;;;11.90;95.60;;;;;;4933295;29;20286;-75
2023/05/27 04:17:59;;;;;;;19.63;3.47;;;11.90;95.80;;;;;;4932327;29;20207;-76
2023/05/27 04:20:35;;;;;;;7.30;2.97;;;11.90;96.00;;;;;;4949062;29;20320;-76
2023/05/27 04:23:02;;;;;;;9.05;3.72;;;12.00;96.60;;;;;;4948579;29;20541;-76
2023/05/27 04:25:28;;;;;;;11.27;3.77;;;12.00;96.50;;;;;;4948989;29;20206;-76
2023/05/27 04:28:06;;;;;;;7.97;3.28;;;12.10;96.70;;;;;;4939700;29;20613;-76
2023/05/27 04:30:35;;;;;;;9.27;2.72;;;12.20;97.10;;;;;;4935539;29;20200;-75
2023/05/27 04:33:03;;;;;;;8.77;3.15;;;12.40;97.40;;;;;;4968035;28;20184;-75
2023/05/27 04:35:32;;;;;;;8.93;3.05;;;12.50;97.50;;;;;;4953522;28;20189;-75
2023/05/27 04:38:00;;;;;;;5.90;2.20;;;12.60;97.60;;;;;;4932442;29;20264;-75
2023/05/27 04:40:31;;;;;;;6.38;2.58;;;12.70;97.90;;;;;;4949429;28;20748;-75
2023/05/27 04:43:14;;;;;;;7.70;2.88;;;12.90;97.70;;;;;;4919840;29;20668;-75
2023/05/27 04:45:41;;;;;;;6.63;2.70;;;13.10;98.10;;;;;;4935125;29;20173;-75
2023/05/27 04:48:08;;;;;;;7.80;3.10;;;13.30;98.50;;;;;;4949286;29;20199;-75
2023/05/27 04:50:34;;;;;;;6.53;2.85;;;13.50;98.50;;;;;;4932106;29;20201;-75
2023/05/27 04:53:00;;;;;;;8.65;2.65;;;13.80;99.00;;;;;;4948546;29;20208;-75
2023/05/27 04:55:27;;;;;;;11.75;3.78;;;14.00;98.80;;;;;;4948391;29;20218;-75
2023/05/27 04:57:53;;;;;;;9.48;2.83;;;14.30;98.70;;;;;;4948658;29;20232;-75
2023/05/27 05:00:24;;;;;;;9.90;3.20;;;14.40;98.10;;;;;;4948161;29;20231;-75
2023/05/27 05:03:00;;;;;;;4.68;2.13;;;14.60;97.80;;;;;;4948333;29;20967;-75
2023/05/27 05:05:28;;;;;;;9.73;3.45;;;14.70;97.60;;;;;;4932580;29;20175;-75
2023/05/27 05:07:54;;;;;;;8.45;2.90;;;14.90;97.50;;;;;;4916495;29;20289;-75
2023/05/27 05:10:21;;;;;;;8.50;3.25;;;15.00;97.40;;;;;;4948403;28;20208;-75
2023/05/27 05:12:49;;;;;;;6.17;2.30;;;15.30;97.70;;;;;;4947958;29;20181;-75
2023/05/27 05:15:19;;;;;;;7.10;2.63;;;15.50;97.70;;;;;;4932936;29;20597;-75
2023/05/27 05:17:46;;;;;;;7.03;2.70;;;15.70;97.40;;;;;;4932220;28;21374;-75
2023/05/27 05:20:13;;;;;;;11.10;3.00;;;15.90;97.20;;;;;;4932312;29;21204;-74
2023/05/27 05:22:39;;;;;;;13.20;3.47;;;16.20;97.20;;;;;;4947446;29;20605;-75
2023/05/27 05:25:06;;;;;;;6.93;2.47;;;16.30;96.70;;;;;;4940521;29;20569;-74
2023/05/27 05:27:38;;;;;;;9.27;3.37;;;16.40;96.30;;;;;;4951172;29;20580;-76
2023/05/27 05:30:05;;;;;;;9.97;2.60;;;16.60;96.30;;;;;;4934922;28;20632;-76
2023/05/27 05:32:30;;;;;;;8.07;2.63;;;16.70;96.50;;;;;;4951451;29;20633;-76
2023/05/27 05:38:47;;;;;;;5.70;2.40;;;16.80;95.10;;;;;;4932410;29;20713;-76
2023/05/27 05:41:13;;;;;;;8.03;2.90;;;16.80;95.00;;;;;;4948129;28;20625;-76
2023/05/27 05:47:05;;;;;;;21.50;3.23;;;16.80;94.60;;;;;;4948320;29;20253;-76
2023/05/27 05:49:31;;;;;;;7.10;2.80;;;17.10;95.10;;;;;;4932496;29;21115;-77
2023/05/27 05:51:57;;;;;;;7.47;3.77;;;17.50;96.00;;;;;;4931532;29;20616;-77
2023/05/27 05:54:23;;;;;;;8.83;2.70;;;18.20;96.80;;;;;;4935426;29;20621;-77
2023/05/27 05:56:55;;;;;;;9.60;2.80;;;19.00;96.60;;;;;;4951361;29;20209;-77
2023/05/27 05:59:21;;;;;;;6.10;2.23;;;19.90;97.10;;;;;;4935679;29;20651;-77
2023/05/27 06:01:46;;;;;;;7.77;3.40;;;20.70;96.40;;;;;;4936325;29;20678;-76
2023/05/27 06:04:13;;;;;;;9.07;3.13;;;21.70;96.30;;;;;;4935365;29;20174;-76
2023/05/27 06:06:42;;;;;;;6.37;2.60;;;22.60;95.70;;;;;;4951031;29;21441;-76
2023/05/27 06:09:31;;;;;;;6.30;2.23;;;23.60;95.10;;;;;;4935479;29;20608;-77
2023/05/27 06:12:01;;;;;;;6.00;2.37;;;24.60;94.50;;;;;;4950775;28;21041;-77
2023/05/27 06:14:32;;;;;;;6.70;3.13;;;25.50;93.40;;;;;;4951196;29;20660;-76
2023/05/27 06:16:58;;;;;;;5.53;2.43;;;26.30;91.20;;;;;;4950919;29;20597;-77
2023/05/27 06:19:24;;;;;;;4.47;2.00;;;27.00;90.20;;;;;;4952047;28;20667;-77
2023/05/27 06:21:51;;;;;;;9.00;2.93;;;27.60;88.30;;;;;;4962338;28;20202;-77
2023/05/27 06:24:19;;;;;;;4.60;1.90;;;28.20;85.00;;;;;;4955084;28;20216;-77
2023/05/27 06:26:50;;;;;;;7.20;2.50;;;28.80;82.30;;;;;;4954269;29;20591;-76
2023/05/27 06:29:16;;;;;;;6.50;2.30;;;29.20;79.40;;;;;;4969850;28;20631;-76
2023/05/27 06:31:42;;;;;;;6.83;2.60;;;29.70;76.20;;;;;;4953782;28;20663;-77
2023/05/27 06:34:08;;;;;;;4.60;2.40;;;29.80;70.70;;;;;;4951337;28;21021;-77
2023/05/27 06:36:34;;;;;;;6.97;2.40;;;29.80;66.20;;;;;;4936246;29;20184;-77
2023/05/27 06:38:59;;;;;;;5.90;2.57;;;29.90;65.70;;;;;;4934454;29;20747;-76
2023/05/27 06:41:26;;;;;;;5.67;2.60;;;29.70;61.40;;;;;;4950537;28;20201;-76
2023/05/27 06:44:12;;;;;;;5.23;2.23;;;29.60;61.20;;;;;;4934735;29;20594;-77
2023/05/27 06:46:49;;;;;;;5.00;2.13;;;29.80;61.10;;;;;;4951059;29;20592;-76
2023/05/27 06:49:23;;;;;;;6.67;2.60;;;30.10;61.00;;;;;;4950516;29;20684;-77
2023/05/27 06:51:49;;;;;;;6.30;2.13;;;30.40;58.30;;;;;;4902535;29;20701;-77
2023/05/27 06:54:15;;;;;;;4.60;2.37;;;30.20;57.30;;;;;;4918964;29;21239;-77
2023/05/27 06:56:43;;;;;;;7.03;2.47;;;30.20;57.30;;;;;;4934203;29;20790;-77
2023/05/27 06:59:09;;;;;;;5.33;2.00;;;30.40;56.50;;;;;;4935898;29;21075;-77
2023/05/27 07:01:35;;;;;;;5.30;2.00;;;30.50;56.40;;;;;;4950002;28;20228;-76
2023/05/27 07:04:03;;;;;;;6.43;1.93;;;30.80;56.50;;;;;;4919356;29;20181;-76
2023/05/27 07:06:40;;;;;;;7.73;2.43;;;31.20;55.90;;;;;;4950109;29;20613;-76
2023/05/27 07:09:06;;;;;;;6.40;2.80;;;31.30;54.50;;;;;;4908223;29;20679;-76
2023/05/27 07:11:33;;;;;;;6.83;2.47;;;31.30;53.30;;;;;;4941037;28;20628;-76
2023/05/27 07:14:04;;;;;;;6.20;3.00;;;31.10;52.00;;;;;;4947094;29;20612;-76
2023/05/27 07:16:32;;;;;;;7.40;2.90;;;30.90;51.40;;;;;;4963558;28;20647;-76
2023/05/27 07:18:58;;;;;;;4.90;2.40;;;30.60;51.00;;;;;;4963282;28;20670;-76
2023/05/27 07:21:25;;;;;;;6.40;2.20;;;30.60;51.80;;;;;;4942398;28;20692;-77
2023/05/27 07:23:51;;;;;;;5.07;2.30;;;30.90;50.80;;;;;;4933675;29;20609;-76
2023/05/27 07:26:32;;;;;;;4.77;1.83;;;31.20;51.50;;;;;;4935873;29;20586;-76
2023/05/27 07:28:59;;;;;;;4.17;2.07;;;31.20;50.40;;;;;;4915934;29;20587;-76
2023/05/27 07:31:34;;;;;;;6.00;2.80;;;31.20;49.90;;;;;;4930407;29;20636;-76
2023/05/27 07:34:05;;;;;;;5.63;3.00;;;31.40;50.20;;;;;;4943614;28;20670;-76
2023/05/27 07:36:32;;;;;;;8.30;2.43;;;31.30;47.70;;;;;;4962090;28;20588;-77
2023/05/27 07:38:58;;;;;;;5.67;2.50;;;31.10;48.30;;;;;;4940468;28;20638;-77
2023/05/27 07:41:24;;;;;;;7.50;3.13;;;31.10;48.30;;;;;;4949552;29;20630;-76
2023/05/27 07:43:50;;;;;;;7.30;2.37;;;31.30;48.30;;;;;;4949668;29;20183;-76
2023/05/27 07:46:16;;;;;;;5.33;1.93;;;31.40;48.60;;;;;;4933190;29;20638;-77
2023/05/27 07:48:42;;;;;;;8.13;2.60;;;31.50;48.00;;;;;;4933745;29;20541;-76
2023/05/27 07:51:09;;;;;;;10.90;3.70;;;31.40;47.20;;;;;;4949039;29;20248;-76
2023/05/27 07:53:36;;;;;;;5.57;2.53;;;30.80;45.30;;;;;;4933137;29;20641;-77
2023/05/27 07:56:02;;;;;;;6.97;2.70;;;30.50;45.90;;;;;;4933247;29;20610;-76
2023/05/27 07:58:28;;;;;;;4.83;2.20;;;30.40;46.00;;;;;;4949468;29;21297;-77
2023/05/27 08:01:03;;;;;;;8.00;2.03;;;30.50;47.20;;;;;;4949098;29;20617;-76
2023/05/27 08:03:29;;;;;;;12.20;3.27;;;31.00;47.50;;;;;;4917335;29;20944;-77
2023/05/27 08:06:22;;;;;;;5.03;2.37;;;31.10;46.90;;;;;;4965680;28;20646;-76
2023/05/27 08:09:08;;;;;;;4.47;2.20;;;31.40;47.10;;;;;;4965574;28;20658;-76
2023/05/27 08:12:00;;;;;;;4.77;2.63;;;31.90;47.40;;;;;;4953804;28;20840;-76
2023/05/27 08:14:45;;;;;;;9.80;3.73;;;32.60;47.90;;;;;;4939927;28;20590;-76
2023/05/27 08:17:14;;;;;;;8.27;2.53;;;33.30;47.20;;;;;;4951288;28;20658;-76
2023/05/27 08:20:03;;;;;;;4.40;1.77;;;33.50;45.70;;;;;;4952356;28;21155;-76
2023/05/27 08:22:52;;;;;;;3.90;2.20;;;33.40;45.00;;;;;;4952490;28;20619;-76
2023/05/27 08:25:45;;;;;;;6.30;2.57;;;33.60;45.10;;;;;;4936195;29;20606;-75
2023/05/27 08:28:36;;;;;;;4.50;2.10;;;33.70;45.10;;;;;;4960894;28;21379;-76
2023/05/27 08:31:22;;;;;;;5.40;2.40;;;33.90;44.20;;;;;;4950159;28;21482;-76
2023/05/27 08:33:52;;;;;;;8.60;2.73;;;33.90;42.70;;;;;;4950334;28;20665;-76
2023/05/27 08:36:19;;;;;;;4.50;1.93;;;33.90;43.80;;;;;;4948903;29;21015;-76
2023/05/27 08:39:30;;;;;;;4.40;2.40;;;34.30;44.00;;;;;;4917309;29;20731;-77
2023/05/27 08:42:11;;;;;;;6.43;2.93;;;34.70;43.80;;;;;;4948914;29;20596;-76
2023/05/27 08:44:37;;;;;;;5.13;1.93;;;35.30;44.20;;;;;;4932114;29;21137;-76
2023/05/27 08:47:05;;;;;;;6.07;2.83;;;35.70;43.00;;;;;;4948822;29;20593;-76
2023/05/27 08:49:32;;;;;;;6.87;2.60;;;36.00;41.40;;;;;;4917123;29;20604;-77
2023/05/27 08:52:00;;;;;;;4.80;2.07;;;36.20;42.10;;;;;;4964087;28;20613;-76
2023/05/27 08:54:27;;;;;;;5.33;2.90;;;36.20;40.80;;;;;;4964738;28;20556;-75
2023/05/27 08:56:59;;;;;;;9.40;2.80;;;36.30;41.20;;;;;;4948401;29;20589;-75
2023/05/27 08:59:25;;;;;;;4.93;2.40;;;36.50;40.20;;;;;;4932562;29;20648;-75
2023/05/27 09:01:52;;;;;;;5.13;2.17;;;36.50;40.40;;;;;;4948031;29;21152;-75
2023/05/27 09:04:18;;;;;;;5.70;2.77;;;36.60;39.90;;;;;;4964231;28;20608;-75
2023/05/27 09:06:44;;;;;;;4.13;2.27;;;36.50;39.70;;;;;;4930075;29;20593;-75
2023/05/27 09:09:11;;;;;;;5.17;2.20;;;36.50;39.00;;;;;;4935199;29;20534;-75
2023/05/27 09:11:40;;;;;;;4.20;2.10;;;36.60;39.70;;;;;;4932006;29;20196;-75
2023/05/27 09:14:05;;;;;;;6.60;2.80;;;36.90;39.70;;;;;;4927333;29;20599;-75
2023/05/27 09:20:25;;;;;;;5.50;2.90;;;37.60;34.90;;;;;;4933811;29;20243;-76
2023/05/27 09:23:00;;;;;;;6.50;2.40;;;37.20;35.30;;;;;;4932048;29;20922;-75
2023/05/27 09:25:27;;;;;;;4.63;2.20;;;36.70;35.40;;;;;;4964389;28;20598;-76
2023/05/27 09:27:55;;;;;;;6.00;2.33;;;36.50;36.90;;;;;;4934840;29;20573;-75
2023/05/27 09:30:22;;;;;;;6.70;2.37;;;36.60;36.40;;;;;;4935456;29;21259;-75
2023/05/27 09:32:48;;;;;;;4.40;2.03;;;36.70;36.20;;;;;;4937106;29;20937;-75
2023/05/27 09:35:16;;;;;;;5.30;1.97;;;36.50;35.70;;;;;;4951221;29;20605;-75
2023/05/27 09:38:12;;;;;;;5.90;2.30;;;36.60;36.60;;;;;;4936308;29;20596;-75
2023/05/27 09:40:38;;;;;;;4.30;2.00;;;36.90;36.60;;;;;;4936789;29;20966;-75
2023/05/27 09:43:04;;;;;;;9.77;2.47;;;37.00;35.90;;;;;;4937056;29;20579;-75
2023/05/27 09:45:30;;;;;;;4.00;2.10;;;36.80;35.80;;;;;;4935584;29;20177;-75
2023/05/27 09:47:58;;;;;;;5.07;1.73;;;36.80;36.00;;;;;;4935731;29;20568;-75
2023/05/27 09:50:25;;;;;;;3.63;1.80;;;36.70;35.20;;;;;;4951212;28;20609;-74
2023/05/27 09:52:54;;;;;;;4.87;2.27;;;36.50;34.70;;;;;;4936876;29;20676;-75
2023/05/27 09:55:19;;;;;;;4.70;2.50;;;36.50;35.50;;;;;;4935842;29;20616;-75
2023/05/27 09:57:45;;;;;;;3.80;2.50;;;36.70;35.40;;;;;;4934874;29;20588;-75
2023/05/27 10:00:12;;;;;;;7.73;2.40;;;36.70;35.00;;;;;;4935549;29;20196;-75
2023/05/27 10:02:41;;;;;;;4.77;1.70;;;36.60;35.40;;;;;;4934953;29;20645;-75
2023/05/27 10:05:08;;;;;;;8.50;1.93;;;36.60;34.60;;;;;;4942526;29;20982;-74
2023/05/27 10:07:39;;;;;;;5.93;2.03;;;36.50;34.90;;;;;;4929906;29;20588;-74
2023/05/27 10:10:11;;;;;;;5.30;2.20;;;36.60;34.20;;;;;;4956772;28;20631;-75
2023/05/27 10:12:38;;;;;;;4.40;2.00;;;36.80;34.40;;;;;;4929342;29;20593;-75
2023/05/27 10:15:05;;;;;;;5.80;2.00;;;36.90;35.50;;;;;;4951306;29;20592;-75
2023/05/27 10:17:48;;;;;;;8.47;2.70;;;37.30;34.80;;;;;;4934833;29;20611;-75
2023/05/27 10:20:27;;;;;;;5.97;2.83;;;37.60;33.60;;;;;;4933797;29;20624;-75
2023/05/27 10:22:53;;;;;;;4.57;2.00;;;37.70;32.90;;;;;;4934336;29;20580;-75
2023/05/27 10:25:20;;;;;;;6.13;2.30;;;37.70;33.50;;;;;;4934383;29;20585;-75
2023/05/27 10:27:47;;;;;;;7.57;2.33;;;37.70;32.70;;;;;;4934014;29;20633;-75
2023/05/27 10:30:14;;;;;;;4.43;1.70;;;37.60;32.40;;;;;;4926935;29;20625;-78
2023/05/27 10:32:58;;;;;;;8.47;2.43;;;37.30;31.70;;;;;;4930044;29;20597;-78
2023/05/27 10:35:27;;;;;;;4.53;1.73;;;36.90;31.60;;;;;;4928708;29;20596;-78
2023/05/27 10:37:54;;;;;;;6.90;2.10;;;36.30;30.80;;;;;;4936281;29;20588;-77
2023/05/27 10:40:27;;;;;;;5.00;2.20;;;36.00;31.20;;;;;;4933913;29;20635;-77
2023/05/27 10:43:01;;;;;;;6.73;2.47;;;35.90;31.80;;;;;;4943236;29;20576;-81
2023/05/27 10:45:34;;;;;;;4.20;1.90;;;35.70;31.70;;;;;;4943304;29;20632;-78
2023/05/27 10:48:01;;;;;;;6.03;2.20;;;35.70;31.90;;;;;;4942546;29;20648;-79
2023/05/27 10:50:34;;;;;;;3.20;1.50;;;35.70;32.60;;;;;;4941005;29;20622;-79
2023/05/27 10:53:01;;;;;;;6.30;2.03;;;35.70;32.30;;;;;;4937862;29;20592;-77
2023/05/27 10:55:27;;;;;;;6.83;2.23;;;35.70;33.20;;;;;;4939957;29;20592;-77
2023/05/27 10:57:53;;;;;;;4.73;2.43;;;35.60;31.80;;;;;;4940172;29;21236;-79
2023/05/27 11:00:20;;;;;;;4.70;2.10;;;35.00;31.90;;;;;;4902463;29;20652;-77
2023/05/27 11:02:47;;;;;;;6.30;2.30;;;34.80;31.70;;;;;;4960754;28;20588;-77
2023/05/27 11:05:16;;;;;;;5.27;2.13;;;34.70;32.00;;;;;;4954009;29;20623;-78
2023/05/27 11:07:42;;;;;;;4.07;2.10;;;34.40;31.30;;;;;;4951708;29;20592;-78
2023/05/27 11:10:09;;;;;;;4.90;2.33;;;34.00;32.60;;;;;;4936388;28;20719;-78
2023/05/27 11:12:35;;;;;;;4.47;1.87;;;33.90;32.70;;;;;;4951999;29;20606;-77
2023/05/27 11:15:01;;;;;;;5.20;2.40;;;33.90;32.60;;;;;;4954538;29;21120;-77
2023/05/27 11:17:27;;;;;;;4.33;2.70;;;33.90;32.00;;;;;;4968893;28;20584;-78
2023/05/27 11:19:54;;;;;;;4.80;1.93;;;33.60;31.90;;;;;;4968883;28;20641;-78
2023/05/27 11:22:20;;;;;;;4.03;1.50;;;33.60;32.30;;;;;;4956894;29;20689;-76
2023/05/27 11:24:59;;;;;;;4.67;1.90;;;33.70;32.90;;;;;;4968442;28;20590;-77
2023/05/27 11:27:36;;;;;;;7.20;1.73;;;33.80;33.60;;;;;;4954682;29;21183;-78
2023/05/27 11:30:12;;;;;;;5.70;2.10;;;34.00;32.50;;;;;;4953110;28;20587;-78
2023/05/27 11:32:40;;;;;;;5.70;2.27;;;33.80;32.00;;;;;;4953110;29;20693;-77
2023/05/27 11:35:13;;;;;;;4.90;2.43;;;33.80;32.80;;;;;;4941419;29;20680;-78
2023/05/27 11:37:39;;;;;;;6.77;1.93;;;33.80;32.40;;;;;;4949632;29;20600;-78
2023/05/27 11:40:11;;;;;;;5.00;1.67;;;33.80;32.60;;;;;;4934580;29;21242;-77
2023/05/27 11:42:37;;;;;;;8.17;2.93;;;34.00;32.70;;;;;;4933514;29;20189;-77
2023/05/27 11:45:06;;;;;;;5.03;1.80;;;34.10;32.50;;;;;;4933220;29;20584;-78
2023/05/27 11:47:32;;;;;;;4.20;2.10;;;34.00;31.50;;;;;;4933624;29;20237;-77
2023/05/27 11:49:58;;;;;;;4.13;1.90;;;33.60;30.90;;;;;;4935020;29;21342;-77
2023/05/27 11:52:27;;;;;;;4.10;1.93;;;33.10;31.00;;;;;;4932127;29;20221;-76
2023/05/27 11:54:52;;;;;;;5.50;2.10;;;32.80;31.00;;;;;;4933605;29;20185;-77
2023/05/27 11:57:18;;;;;;;4.30;1.87;;;32.70;31.50;;;;;;4942963;29;20718;-77
2023/05/27 11:59:44;;;;;;;6.03;2.10;;;32.60;31.90;;;;;;4955403;29;20620;-77
2023/05/27 12:02:10;;;;;;;3.13;1.63;;;32.60;32.00;;;;;;4951883;29;20204;-77
2023/05/27 12:04:36;;;;;;;5.20;1.77;;;32.60;31.70;;;;;;4953887;28;20217;-77
2023/05/27 12:07:02;;;;;;;4.60;2.00;;;32.30;30.80;;;;;;4953266;28;20618;-76
2023/05/27 12:09:28;;;;;;;5.97;2.47;;;32.30;31.50;;;;;;4952711;29;20189;-77
2023/05/27 12:11:54;;;;;;;5.40;2.30;;;32.20;31.50;;;;;;4951806;29;20630;-76
2023/05/27 12:14:22;;;;;;;4.70;1.90;;;32.10;31.30;;;;;;4968108;28;20189;-75
2023/05/27 12:16:48;;;;;;;3.60;1.77;;;31.90;31.00;;;;;;4968617;28;20187;-74
2023/05/27 12:19:13;;;;;;;5.70;2.13;;;31.80;31.20;;;;;;4953236;28;20999;-74
2023/05/27 12:21:39;;;;;;;3.53;1.90;;;31.60;31.10;;;;;;4952227;29;21038;-74
2023/05/27 12:24:06;;;;;;;4.60;2.10;;;31.40;31.20;;;;;;4953237;29;20207;-74
2023/05/27 12:26:31;;;;;;;5.53;1.70;;;31.30;31.30;;;;;;4951856;29;20204;-74
2023/05/27 12:28:57;;;;;;;4.50;2.27;;;31.00;31.30;;;;;;4957443;28;21026;-75
2023/05/27 12:31:24;;;;;;;4.40;1.70;;;30.90;31.70;;;;;;4949868;28;20220;-74
2023/05/27 12:33:50;;;;;;;3.03;1.17;;;30.90;31.90;;;;;;4938014;29;20205;-79
2023/05/27 12:36:15;;;;;;;3.40;1.50;;;30.90;32.20;;;;;;4948742;29;20839;-79
2023/05/27 12:38:41;;;;;;;5.50;1.80;;;30.80;31.90;;;;;;4948797;29;20206;-79
2023/05/27 12:41:07;;;;;;;3.90;1.70;;;30.70;31.90;;;;;;4933352;29;21152;-80
2023/05/27 12:43:33;;;;;;;3.27;1.70;;;30.60;31.80;;;;;;4917100;29;20181;-80
2023/05/27 12:45:59;;;;;;;4.33;2.13;;;30.50;31.60;;;;;;4933855;29;20607;-79
2023/05/27 12:48:25;;;;;;;2.60;1.57;;;30.30;32.00;;;;;;4933933;29;20662;-78
2023/05/27 12:50:53;;;;;;;5.30;1.90;;;30.20;31.90;;;;;;4948317;29;20197;-79
2023/05/27 12:53:19;;;;;;;5.33;1.90;;;29.90;31.50;;;;;;4949248;28;20652;-77
2023/05/27 12:55:45;;;;;;;4.77;1.63;;;29.70;31.80;;;;;;4944516;29;20594;-79
2023/05/27 12:58:11;;;;;;;4.73;2.53;;;29.50;31.80;;;;;;4948508;29;20672;-78
2023/05/27 13:00:37;;;;;;;3.00;1.90;;;29.30;31.50;;;;;;4945534;28;20216;-78
2023/05/27 13:03:03;;;;;;;8.17;2.40;;;29.10;31.40;;;;;;4936867;29;20612;-78
2023/05/27 13:05:31;;;;;;;4.60;1.70;;;28.80;31.10;;;;;;4940161;29;20664;-78